sensor_id;sensor_type;location;lat;lon;timestamp;P1;durP1;ratioP1;P2;durP2;ratioP2
64452;SDS011;50813;52.654;6.766;2023-04-01T00:01:25;3.8;;;3.3;;
64452;SDS011;50813;52.654;6.766;2023-04-01T00:03:02;15.9;;;4.2;;
64452;SDS011;50813;52.654;6.766;2023-04-01T00:04:38;4.91;;;3.4;;
64452;SDS011;50813;52.654;6.766;2023-04-01T00:06:14;15.8;;;4.0;;
64452;SDS011;50813;52.654;6.766;2023-04-01T00:09:29;3.8;;;3.1;;
64452;SDS011;50813;52.654;6.766;2023-04-01T00:11:05;4.91;;;3.9;;
64452;SDS011;50813;52.654;6.766;2023-04-01T00:12:41;4.3;;;2.9;;
64452;SDS011;50813;52.654;6.766;2023-04-01T00:15:55;4.0;;;3.0;;
64452;SDS011;50813;52.654;6.766;2023-04-01T00:17:32;3.1;;;2.8;;
64452;SDS011;50813;52.654;6.766;2023-04-01T00:19:08;3.7;;;3.0;;
64452;SDS011;50813;52.654;6.766;2023-04-01T00:22:22;6.4;;;3.2;;
64452;SDS011;50813;52.654;6.766;2023-04-01T00:23:59;67.6;;;5.0;;
64452;SDS011;50813;52.654;6.766;2023-04-01T00:25:35;3.4;;;2.6;;
64452;SDS011;50813;52.654;6.766;2023-04-01T00:27:11;3.4;;;2.6;;
64452;SDS011;50813;52.654;6.766;2023-04-01T00:30:25;3.3;;;2.7;;
64452;SDS011;50813;52.654;6.766;2023-04-01T00:32:01;6.5;;;3.4;;
64452;SDS011;50813;52.654;6.766;2023-04-01T00:33:37;74.7;;;8.0;;
64452;SDS011;50813;52.654;6.766;2023-04-01T00:36:51;6.0;;;3.1;;
64452;SDS011;50813;52.654;6.766;2023-04-01T00:38:28;3.6;;;2.21;;
64452;SDS011;50813;52.654;6.766;2023-04-01T00:40:05;6.3;;;2.6;;
64452;SDS011;50813;52.654;6.766;2023-04-01T00:42:01;21.2;;;3.1;;
64452;SDS011;50813;52.654;6.766;2023-04-01T00:45:25;2.31;;;2.1;;
64452;SDS011;50813;52.654;6.766;2023-04-01T00:47:05;4.61;;;2.7;;
64452;SDS011;50813;52.654;6.766;2023-04-01T00:48:41;4.3;;;2.6;;
64452;SDS011;50813;52.654;6.766;2023-04-01T00:50:21;4.3;;;2.5;;
64452;SDS011;50813;52.654;6.766;2023-04-01T00:53:40;2.31;;;2.1;;
64452;SDS011;50813;52.654;6.766;2023-04-01T00:55:21;3.8;;;2.6;;
64452;SDS011;50813;52.654;6.766;2023-04-01T00:56:59;3.4;;;2.5;;
64452;SDS011;50813;52.654;6.766;2023-04-01T00:58:40;32.1;;;4.5;;
64452;SDS011;50813;52.654;6.766;2023-04-01T01:01:56;67.0;;;6.2;;
64452;SDS011;50813;52.654;6.766;2023-04-01T01:03:32;67.0;;;6.2;;
64452;SDS011;50813;52.654;6.766;2023-04-01T01:05:08;4.7;;;2.21;;
64452;SDS011;50813;52.654;6.766;2023-04-01T01:08:39;36.71;;;4.7;;
64452;SDS011;50813;52.654;6.766;2023-04-01T01:10:39;13.6;;;3.2;;
64452;SDS011;50813;52.654;6.766;2023-04-01T01:12:17;35.31;;;4.0;;
64452;SDS011;50813;52.654;6.766;2023-04-01T01:13:57;5.6;;;3.0;;
64452;SDS011;50813;52.654;6.766;2023-04-01T01:15:41;4.2;;;2.7;;
64452;SDS011;50813;52.654;6.766;2023-04-01T01:17:26;4.8;;;2.7;;
64452;SDS011;50813;52.654;6.766;2023-04-01T01:21:52;33.21;;;4.1;;
64452;SDS011;50813;52.654;6.766;2023-04-01T01:23:47;4.8;;;2.9;;
64452;SDS011;50813;52.654;6.766;2023-04-01T01:26:23;4.2;;;3.1;;
64452;SDS011;50813;52.654;6.766;2023-04-01T01:28:37;4.3;;;2.6;;
64452;SDS011;50813;52.654;6.766;2023-04-01T01:30:34;36.21;;;4.2;;
64452;SDS011;50813;52.654;6.766;2023-04-01T01:32:21;3.4;;;2.7;;
64452;SDS011;50813;52.654;6.766;2023-04-01T01:35:16;3.3;;;3.0;;
64452;SDS011;50813;52.654;6.766;2023-04-01T01:36:59;3.9;;;2.7;;
64452;SDS011;50813;52.654;6.766;2023-04-01T01:38:41;4.7;;;3.2;;
64452;SDS011;50813;52.654;6.766;2023-04-01T01:41:56;3.8;;;2.8;;
64452;SDS011;50813;52.654;6.766;2023-04-01T01:43:36;2.8;;;2.5;;
64452;SDS011;50813;52.654;6.766;2023-04-01T01:45:16;7.0;;;3.3;;
64452;SDS011;50813;52.654;6.766;2023-04-01T01:46:57;3.3;;;2.9;;
64452;SDS011;50813;52.654;6.766;2023-04-01T01:50:13;4.61;;;2.9;;
64452;SDS011;50813;52.654;6.766;2023-04-01T01:51:51;4.5;;;2.9;;
64452;SDS011;50813;52.654;6.766;2023-04-01T01:53:28;3.5;;;2.9;;
64452;SDS011;50813;52.654;6.766;2023-04-01T01:55:22;4.2;;;3.0;;
64452;SDS011;50813;52.654;6.766;2023-04-01T01:58:43;4.3;;;3.6;;
64452;SDS011;50813;52.654;6.766;2023-04-01T02:00:22;4.3;;;3.2;;
64452;SDS011;50813;52.654;6.766;2023-04-01T02:01:58;5.5;;;3.1;;
64452;SDS011;50813;52.654;6.766;2023-04-01T02:03:36;4.61;;;3.2;;
64452;SDS011;50813;52.654;6.766;2023-04-01T02:06:56;3.0;;;2.31;;
64452;SDS011;50813;52.654;6.766;2023-04-01T02:08:38;3.0;;;2.7;;
64452;SDS011;50813;52.654;6.766;2023-04-01T02:10:18;3.1;;;2.8;;
64452;SDS011;50813;52.654;6.766;2023-04-01T02:11:59;4.41;;;3.2;;
64452;SDS011;50813;52.654;6.766;2023-04-01T02:15:22;3.7;;;3.1;;
64452;SDS011;50813;52.654;6.766;2023-04-01T02:17:04;3.6;;;3.1;;
64452;SDS011;50813;52.654;6.766;2023-04-01T02:18:44;3.0;;;2.7;;
64452;SDS011;50813;52.654;6.766;2023-04-01T02:20:24;3.9;;;3.2;;
64452;SDS011;50813;52.654;6.766;2023-04-01T02:23:46;4.41;;;3.0;;
64452;SDS011;50813;52.654;6.766;2023-04-01T02:25:23;3.4;;;3.1;;
64452;SDS011;50813;52.654;6.766;2023-04-01T02:27:03;4.41;;;3.2;;
64452;SDS011;50813;52.654;6.766;2023-04-01T02:28:39;4.5;;;3.0;;
64452;SDS011;50813;52.654;6.766;2023-04-01T02:31:56;4.41;;;3.5;;
64452;SDS011;50813;52.654;6.766;2023-04-01T02:33:34;3.4;;;2.8;;
64452;SDS011;50813;52.654;6.766;2023-04-01T02:35:10;4.41;;;3.0;;
64452;SDS011;50813;52.654;6.766;2023-04-01T02:38:26;100.3;;;8.9;;
64452;SDS011;50813;52.654;6.766;2023-04-01T02:40:03;26.5;;;4.2;;
64452;SDS011;50813;52.654;6.766;2023-04-01T02:41:43;26.5;;;4.2;;
64452;SDS011;50813;52.654;6.766;2023-04-01T02:43:20;3.6;;;2.6;;
64452;SDS011;50813;52.654;6.766;2023-04-01T02:46:33;3.2;;;2.9;;
64452;SDS011;50813;52.654;6.766;2023-04-01T02:48:09;3.9;;;2.9;;
64452;SDS011;50813;52.654;6.766;2023-04-01T02:49:45;5.5;;;3.4;;
64452;SDS011;50813;52.654;6.766;2023-04-01T02:52:58;6.6;;;3.8;;
64452;SDS011;50813;52.654;6.766;2023-04-01T02:54:35;3.5;;;3.1;;
64452;SDS011;50813;52.654;6.766;2023-04-01T02:56:11;22.7;;;3.8;;
64452;SDS011;50813;52.654;6.766;2023-04-01T02:57:48;5.6;;;3.4;;
64452;SDS011;50813;52.654;6.766;2023-04-01T03:01:00;5.9;;;4.1;;
64452;SDS011;50813;52.654;6.766;2023-04-01T03:02:36;4.3;;;3.9;;
64452;SDS011;50813;52.654;6.766;2023-04-01T03:04:13;3.4;;;3.2;;
64452;SDS011;50813;52.654;6.766;2023-04-01T03:07:25;5.3;;;3.7;;
64452;SDS011;50813;52.654;6.766;2023-04-01T03:09:01;4.7;;;4.3;;
64452;SDS011;50813;52.654;6.766;2023-04-01T03:10:38;5.4;;;3.6;;
64452;SDS011;50813;52.654;6.766;2023-04-01T03:13:50;3.4;;;3.2;;
64452;SDS011;50813;52.654;6.766;2023-04-01T03:15:26;6.5;;;3.9;;
64452;SDS011;50813;52.654;6.766;2023-04-01T03:17:02;4.0;;;3.7;;
64452;SDS011;50813;52.654;6.766;2023-04-01T03:20:15;3.4;;;3.1;;
64452;SDS011;50813;52.654;6.766;2023-04-01T03:21:51;4.8;;;4.0;;
64452;SDS011;50813;52.654;6.766;2023-04-01T03:23:28;3.9;;;3.6;;
64452;SDS011;50813;52.654;6.766;2023-04-01T03:25:05;4.91;;;4.41;;
64452;SDS011;50813;52.654;6.766;2023-04-01T03:28:18;3.8;;;3.5;;
64452;SDS011;50813;52.654;6.766;2023-04-01T03:29:54;4.0;;;3.6;;
64452;SDS011;50813;52.654;6.766;2023-04-01T03:31:30;3.5;;;3.3;;
64452;SDS011;50813;52.654;6.766;2023-04-01T03:34:43;5.8;;;4.3;;
64452;SDS011;50813;52.654;6.766;2023-04-01T03:36:19;4.91;;;4.41;;
64452;SDS011;50813;52.654;6.766;2023-04-01T03:37:55;3.6;;;3.4;;
64452;SDS011;50813;52.654;6.766;2023-04-01T03:41:07;3.7;;;3.4;;
64452;SDS011;50813;52.654;6.766;2023-04-01T03:42:47;3.4;;;3.2;;
64452;SDS011;50813;52.654;6.766;2023-04-01T03:44:24;3.9;;;3.6;;
64452;SDS011;50813;52.654;6.766;2023-04-01T03:46:01;4.1;;;3.8;;
64452;SDS011;50813;52.654;6.766;2023-04-01T03:49:13;4.61;;;4.2;;
64452;SDS011;50813;52.654;6.766;2023-04-01T03:50:49;4.5;;;4.0;;
64452;SDS011;50813;52.654;6.766;2023-04-01T03:52:25;4.7;;;4.2;;
64452;SDS011;50813;52.654;6.766;2023-04-01T03:55:37;3.5;;;3.2;;
64452;SDS011;50813;52.654;6.766;2023-04-01T03:57:14;5.8;;;4.61;;
64452;SDS011;50813;52.654;6.766;2023-04-01T03:58:51;3.9;;;3.6;;
64452;SDS011;50813;52.654;6.766;2023-04-01T04:02:04;4.5;;;4.1;;
64452;SDS011;50813;52.654;6.766;2023-04-01T04:03:40;4.41;;;4.1;;
64452;SDS011;50813;52.654;6.766;2023-04-01T04:05:16;3.8;;;3.5;;
64452;SDS011;50813;52.654;6.766;2023-04-01T04:06:52;4.0;;;3.6;;
64452;SDS011;50813;52.654;6.766;2023-04-01T04:10:06;4.41;;;4.0;;
64452;SDS011;50813;52.654;6.766;2023-04-01T04:11:42;4.2;;;3.8;;
64452;SDS011;50813;52.654;6.766;2023-04-01T04:13:18;5.3;;;4.61;;
64452;SDS011;50813;52.654;6.766;2023-04-01T04:16:34;32.4;;;5.9;;
64452;SDS011;50813;52.654;6.766;2023-04-01T04:18:11;5.5;;;5.0;;
64452;SDS011;50813;52.654;6.766;2023-04-01T04:19:47;4.8;;;4.41;;
64452;SDS011;50813;52.654;6.766;2023-04-01T04:23:00;5.7;;;4.8;;
64452;SDS011;50813;52.654;6.766;2023-04-01T04:24:36;5.7;;;4.8;;
64452;SDS011;50813;52.654;6.766;2023-04-01T04:26:13;5.3;;;4.8;;
64452;SDS011;50813;52.654;6.766;2023-04-01T04:27:51;6.1;;;5.5;;
64452;SDS011;50813;52.654;6.766;2023-04-01T04:31:03;5.0;;;4.5;;
64452;SDS011;50813;52.654;6.766;2023-04-01T04:32:40;5.11;;;4.7;;
64452;SDS011;50813;52.654;6.766;2023-04-01T04:34:16;7.0;;;5.6;;
64452;SDS011;50813;52.654;6.766;2023-04-01T04:37:31;6.7;;;5.7;;
64452;SDS011;50813;52.654;6.766;2023-04-01T04:39:08;6.4;;;5.7;;
64452;SDS011;50813;52.654;6.766;2023-04-01T04:40:44;5.6;;;5.11;;
64452;SDS011;50813;52.654;6.766;2023-04-01T04:43:57;5.0;;;4.61;;
64452;SDS011;50813;52.654;6.766;2023-04-01T04:45:33;6.6;;;5.7;;
64452;SDS011;50813;52.654;6.766;2023-04-01T04:47:09;5.0;;;4.61;;
64452;SDS011;50813;52.654;6.766;2023-04-01T04:48:45;6.3;;;5.11;;
64452;SDS011;50813;52.654;6.766;2023-04-01T04:51:58;6.8;;;5.5;;
64452;SDS011;50813;52.654;6.766;2023-04-01T04:53:35;6.1;;;5.4;;
64452;SDS011;50813;52.654;6.766;2023-04-01T04:55:12;5.9;;;5.3;;
64452;SDS011;50813;52.654;6.766;2023-04-01T04:58:27;7.9;;;5.8;;
64452;SDS011;50813;52.654;6.766;2023-04-01T05:00:03;6.8;;;6.1;;
64452;SDS011;50813;52.654;6.766;2023-04-01T05:01:41;7.4;;;6.1;;
64452;SDS011;50813;52.654;6.766;2023-04-01T05:03:17;6.8;;;5.7;;
64452;SDS011;50813;52.654;6.766;2023-04-01T05:06:29;7.9;;;6.7;;
64452;SDS011;50813;52.654;6.766;2023-04-01T05:08:05;8.6;;;6.4;;
64452;SDS011;50813;52.654;6.766;2023-04-01T05:09:41;6.1;;;5.5;;
64452;SDS011;50813;52.654;6.766;2023-04-01T05:12:55;7.6;;;6.4;;
64452;SDS011;50813;52.654;6.766;2023-04-01T05:14:31;7.2;;;5.4;;
64452;SDS011;50813;52.654;6.766;2023-04-01T05:16:07;6.9;;;6.2;;
64452;SDS011;50813;52.654;6.766;2023-04-01T05:19:20;6.9;;;6.2;;
64452;SDS011;50813;52.654;6.766;2023-04-01T05:20:56;6.8;;;6.2;;
64452;SDS011;50813;52.654;6.766;2023-04-01T05:22:31;7.1;;;6.5;;
64452;SDS011;50813;52.654;6.766;2023-04-01T05:25:44;6.5;;;5.9;;
64452;SDS011;50813;52.654;6.766;2023-04-01T05:27:19;6.0;;;5.4;;
64452;SDS011;50813;52.654;6.766;2023-04-01T05:28:56;6.6;;;5.9;;
64452;SDS011;50813;52.654;6.766;2023-04-01T05:30:31;6.7;;;6.0;;
64452;SDS011;50813;52.654;6.766;2023-04-01T05:33:43;6.3;;;5.8;;
64452;SDS011;50813;52.654;6.766;2023-04-01T05:35:20;8.6;;;7.2;;
64452;SDS011;50813;52.654;6.766;2023-04-01T05:36:56;6.3;;;5.7;;
64452;SDS011;50813;52.654;6.766;2023-04-01T05:40:08;6.0;;;5.5;;
64452;SDS011;50813;52.654;6.766;2023-04-01T05:41:45;8.0;;;6.2;;
64452;SDS011;50813;52.654;6.766;2023-04-01T05:43:21;6.2;;;5.6;;
64452;SDS011;50813;52.654;6.766;2023-04-01T05:46:33;9.0;;;6.8;;
64452;SDS011;50813;52.654;6.766;2023-04-01T05:48:09;7.4;;;6.1;;
64452;SDS011;50813;52.654;6.766;2023-04-01T05:49:45;6.7;;;6.1;;
64452;SDS011;50813;52.654;6.766;2023-04-01T05:52:59;7.3;;;6.6;;
64452;SDS011;50813;52.654;6.766;2023-04-01T05:54:35;7.1;;;6.4;;
64452;SDS011;50813;52.654;6.766;2023-04-01T05:56:11;7.6;;;6.2;;
64452;SDS011;50813;52.654;6.766;2023-04-01T05:57:47;7.2;;;6.5;;
64452;SDS011;50813;52.654;6.766;2023-04-01T06:02:37;7.4;;;6.7;;
64452;SDS011;50813;52.654;6.766;2023-04-01T06:04:14;10.0;;;8.0;;
64452;SDS011;50813;52.654;6.766;2023-04-01T06:07:28;8.5;;;7.7;;
64452;SDS011;50813;52.654;6.766;2023-04-01T06:09:07;8.5;;;7.7;;
64452;SDS011;50813;52.654;6.766;2023-04-01T06:10:53;8.81;;;7.9;;
64452;SDS011;50813;52.654;6.766;2023-04-01T06:12:40;7.9;;;7.2;;
64452;SDS011;50813;52.654;6.766;2023-04-01T06:14:40;8.1;;;7.3;;
64452;SDS011;50813;52.654;6.766;2023-04-01T06:18:23;7.8;;;7.1;;
64452;SDS011;50813;52.654;6.766;2023-04-01T06:21:05;8.0;;;7.2;;
64452;SDS011;50813;52.654;6.766;2023-04-01T06:23:08;8.5;;;7.7;;
64452;SDS011;50813;52.654;6.766;2023-04-01T06:25:12;7.7;;;6.9;;
64452;SDS011;50813;52.654;6.766;2023-04-01T06:27:07;8.5;;;7.6;;
64452;SDS011;50813;52.654;6.766;2023-04-01T06:31:09;7.8;;;7.1;;
64452;SDS011;50813;52.654;6.766;2023-04-01T06:32:57;8.5;;;7.6;;
64452;SDS011;50813;52.654;6.766;2023-04-01T06:35:45;8.5;;;7.6;;
64452;SDS011;50813;52.654;6.766;2023-04-01T06:37:54;10.0;;;8.2;;
64452;SDS011;50813;52.654;6.766;2023-04-01T06:41:26;12.5;;;8.9;;
64452;SDS011;50813;52.654;6.766;2023-04-01T06:44:14;15.1;;;9.31;;
64452;SDS011;50813;52.654;6.766;2023-04-01T06:46:00;9.4;;;8.4;;
64452;SDS011;50813;52.654;6.766;2023-04-01T06:49:42;9.5;;;8.5;;
64452;SDS011;50813;52.654;6.766;2023-04-01T06:51:31;14.1;;;9.6;;
64452;SDS011;50813;52.654;6.766;2023-04-01T06:53:21;10.7;;;9.1;;
64452;SDS011;50813;52.654;6.766;2023-04-01T06:55:14;11.3;;;8.71;;
64452;SDS011;50813;52.654;6.766;2023-04-01T06:57:03;10.6;;;8.71;;
64452;SDS011;50813;52.654;6.766;2023-04-01T06:58:56;11.6;;;9.21;;
64452;SDS011;50813;52.654;6.766;2023-04-01T07:00:39;11.3;;;8.9;;
64452;SDS011;50813;52.654;6.766;2023-04-01T07:04:06;12.2;;;9.9;;
64452;SDS011;50813;52.654;6.766;2023-04-01T07:05:49;11.8;;;9.1;;
64452;SDS011;50813;52.654;6.766;2023-04-01T07:07:29;13.6;;;9.9;;
64452;SDS011;50813;52.654;6.766;2023-04-01T07:09:11;11.8;;;9.5;;
64452;SDS011;50813;52.654;6.766;2023-04-01T07:12:36;10.7;;;9.6;;
64452;SDS011;50813;52.654;6.766;2023-04-01T07:14:20;11.1;;;9.4;;
64452;SDS011;50813;52.654;6.766;2023-04-01T07:16:07;10.4;;;9.4;;
64452;SDS011;50813;52.654;6.766;2023-04-01T07:17:51;9.4;;;8.5;;
64452;SDS011;50813;52.654;6.766;2023-04-01T07:19:32;10.3;;;9.31;;
64452;SDS011;50813;52.654;6.766;2023-04-01T07:23:02;11.1;;;9.0;;
64452;SDS011;50813;52.654;6.766;2023-04-01T07:24:41;10.21;;;8.6;;
64452;SDS011;50813;52.654;6.766;2023-04-01T07:26:21;12.4;;;9.0;;
64452;SDS011;50813;52.654;6.766;2023-04-01T07:28:00;10.3;;;8.9;;
64452;SDS011;50813;52.654;6.766;2023-04-01T07:31:20;9.5;;;8.31;;
64452;SDS011;50813;52.654;6.766;2023-04-01T07:33:09;10.3;;;8.4;;
64452;SDS011;50813;52.654;6.766;2023-04-01T07:34:56;8.4;;;7.6;;
64452;SDS011;50813;52.654;6.766;2023-04-01T07:36:48;7.7;;;7.0;;
64452;SDS011;50813;52.654;6.766;2023-04-01T07:38:36;8.4;;;7.7;;
64452;SDS011;50813;52.654;6.766;2023-04-01T07:40:27;9.21;;;8.31;;
64452;SDS011;50813;52.654;6.766;2023-04-01T07:44:03;9.6;;;8.6;;
64452;SDS011;50813;52.654;6.766;2023-04-01T07:45:54;10.7;;;9.4;;
64452;SDS011;50813;52.654;6.766;2023-04-01T07:47:41;12.1;;;9.1;;
64452;SDS011;50813;52.654;6.766;2023-04-01T07:49:35;10.7;;;8.71;;
64452;SDS011;50813;52.654;6.766;2023-04-01T07:51:21;12.0;;;9.5;;
64452;SDS011;50813;52.654;6.766;2023-04-01T07:53:06;10.7;;;9.21;;
64452;SDS011;50813;52.654;6.766;2023-04-01T07:54:54;10.5;;;9.1;;
64452;SDS011;50813;52.654;6.766;2023-04-01T07:58:23;10.9;;;8.4;;
64452;SDS011;50813;52.654;6.766;2023-04-01T08:00:11;10.4;;;8.81;;
64452;SDS011;50813;52.654;6.766;2023-04-01T08:01:55;9.81;;;8.6;;
64452;SDS011;50813;52.654;6.766;2023-04-01T08:03:52;10.21;;;8.9;;
64452;SDS011;50813;52.654;6.766;2023-04-01T08:05:49;7.7;;;6.9;;
64452;SDS011;50813;52.654;6.766;2023-04-01T08:07:33;7.9;;;7.2;;
64452;SDS011;50813;52.654;6.766;2023-04-01T08:11:08;8.81;;;7.7;;
64452;SDS011;50813;52.654;6.766;2023-04-01T08:12:59;6.7;;;6.0;;
64452;SDS011;50813;52.654;6.766;2023-04-01T08:14:48;7.5;;;6.5;;
64452;SDS011;50813;52.654;6.766;2023-04-01T08:16:32;7.6;;;6.8;;
64452;SDS011;50813;52.654;6.766;2023-04-01T08:18:20;9.21;;;7.5;;
64452;SDS011;50813;52.654;6.766;2023-04-01T08:20:11;9.5;;;7.7;;
64452;SDS011;50813;52.654;6.766;2023-04-01T08:23:40;9.71;;;7.5;;
64452;SDS011;50813;52.654;6.766;2023-04-01T08:25:20;7.9;;;7.1;;
64452;SDS011;50813;52.654;6.766;2023-04-01T08:27:01;7.8;;;7.1;;
64452;SDS011;50813;52.654;6.766;2023-04-01T08:28:46;36.5;;;8.2;;
64452;SDS011;50813;52.654;6.766;2023-04-01T08:30:30;8.31;;;7.3;;
64452;SDS011;50813;52.654;6.766;2023-04-01T08:33:59;36.31;;;9.0;;
64452;SDS011;50813;52.654;6.766;2023-04-01T08:35:40;9.81;;;8.2;;
64452;SDS011;50813;52.654;6.766;2023-04-01T08:37:25;29.8;;;8.6;;
64452;SDS011;50813;52.654;6.766;2023-04-01T08:39:09;8.2;;;7.4;;
64452;SDS011;50813;52.654;6.766;2023-04-01T08:44:34;9.4;;;7.9;;
64452;SDS011;50813;52.654;6.766;2023-04-01T08:47:42;55.0;;;8.9;;
64452;SDS011;50813;52.654;6.766;2023-04-01T08:51:16;35.1;;;7.5;;
64452;SDS011;50813;52.654;6.766;2023-04-01T08:54:10;5.0;;;4.61;;
64452;SDS011;50813;52.654;6.766;2023-04-01T08:57:26;5.7;;;5.2;;
64452;SDS011;50813;52.654;6.766;2023-04-01T08:59:36;59.6;;;9.5;;
64452;SDS011;50813;52.654;6.766;2023-04-01T09:01:31;17.61;;;7.3;;
64452;SDS011;50813;52.654;6.766;2023-04-01T09:04:41;49.6;;;7.9;;
64452;SDS011;50813;52.654;6.766;2023-04-01T09:06:37;8.0;;;5.7;;
64452;SDS011;50813;52.654;6.766;2023-04-01T09:08:28;86.1;;;8.71;;
64452;SDS011;50813;52.654;6.766;2023-04-01T09:10:21;7.0;;;6.4;;
64452;SDS011;50813;52.654;6.766;2023-04-01T09:13:08;6.7;;;6.1;;
64452;SDS011;50813;52.654;6.766;2023-04-01T09:15:34;7.3;;;6.7;;
64452;SDS011;50813;52.654;6.766;2023-04-01T09:18:42;86.1;;;12.0;;
64452;SDS011;50813;52.654;6.766;2023-04-01T09:21:41;38.4;;;9.5;;
64452;SDS011;50813;52.654;6.766;2023-04-01T09:23:49;107.7;;;13.5;;
64452;SDS011;50813;52.654;6.766;2023-04-01T09:26:08;107.7;;;13.5;;
64452;SDS011;50813;52.654;6.766;2023-04-01T09:28:06;206.9;;;16.11;;
64452;SDS011;50813;52.654;6.766;2023-04-01T09:30:28;7.2;;;6.2;;
64452;SDS011;50813;52.654;6.766;2023-04-01T09:32:33;37.6;;;9.0;;
64452;SDS011;50813;52.654;6.766;2023-04-01T09:36:02;75.2;;;12.3;;
64452;SDS011;50813;52.654;6.766;2023-04-01T09:37:47;147.4;;;11.9;;
64452;SDS011;50813;52.654;6.766;2023-04-01T09:39:34;5.11;;;4.5;;
64452;SDS011;50813;52.654;6.766;2023-04-01T09:43:16;7.7;;;5.0;;
64452;SDS011;50813;52.654;6.766;2023-04-01T09:45:05;5.5;;;5.0;;
64452;SDS011;50813;52.654;6.766;2023-04-01T09:46:56;5.5;;;5.11;;
64452;SDS011;50813;52.654;6.766;2023-04-01T09:48:59;113.4;;;10.5;;
64452;SDS011;50813;52.654;6.766;2023-04-01T09:52:13;4.5;;;4.1;;
64452;SDS011;50813;52.654;6.766;2023-04-01T09:57:06;35.81;;;6.1;;
64452;SDS011;50813;52.654;6.766;2023-04-01T09:59:20;64.5;;;6.8;;
64452;SDS011;50813;52.654;6.766;2023-04-01T10:01:23;2.9;;;2.7;;
64452;SDS011;50813;52.654;6.766;2023-04-01T10:06:09;2.8;;;2.6;;
64452;SDS011;50813;52.654;6.766;2023-04-01T10:09:34;8.6;;;3.2;;
64452;SDS011;50813;52.654;6.766;2023-04-01T10:13:10;23.6;;;5.2;;
64452;SDS011;50813;52.654;6.766;2023-04-01T10:20:23;32.4;;;3.7;;
64452;SDS011;50813;52.654;6.766;2023-04-01T10:22:36;3.0;;;2.8;;
64452;SDS011;50813;52.654;6.766;2023-04-01T10:26:14;27.1;;;5.11;;
64452;SDS011;50813;52.654;6.766;2023-04-01T10:29:21;21.0;;;4.1;;
64452;SDS011;50813;52.654;6.766;2023-04-01T10:34:19;98.6;;;9.21;;
64452;SDS011;50813;52.654;6.766;2023-04-01T10:39:08;9.81;;;5.5;;
64452;SDS011;50813;52.654;6.766;2023-04-01T10:41:47;158.9;;;10.5;;
64452;SDS011;50813;52.654;6.766;2023-04-01T10:45:23;96.5;;;8.4;;
64452;SDS011;50813;52.654;6.766;2023-04-01T10:49:08;24.1;;;7.1;;
64452;SDS011;50813;52.654;6.766;2023-04-01T10:51:59;4.7;;;4.41;;
64452;SDS011;50813;52.654;6.766;2023-04-01T10:56:00;87.4;;;10.21;;
64452;SDS011;50813;52.654;6.766;2023-04-01T11:00:31;39.0;;;7.7;;
64452;SDS011;50813;52.654;6.766;2023-04-01T11:04:35;121.0;;;10.9;;
64452;SDS011;50813;52.654;6.766;2023-04-01T11:06:27;121.0;;;10.9;;
64452;SDS011;50813;52.654;6.766;2023-04-01T11:07:19;121.0;;;10.9;;
64452;SDS011;50813;52.654;6.766;2023-04-01T11:10:57;131.81;;;11.1;;
64452;SDS011;50813;52.654;6.766;2023-04-01T11:14:25;30.3;;;5.9;;
64452;SDS011;50813;52.654;6.766;2023-04-01T11:16:19;16.61;;;7.0;;
64452;SDS011;50813;52.654;6.766;2023-04-01T11:17:18;16.61;;;7.0;;
64452;SDS011;50813;52.654;6.766;2023-04-01T11:19:50;35.6;;;5.6;;
64452;SDS011;50813;52.654;6.766;2023-04-01T11:22:18;4.91;;;4.41;;
64452;SDS011;50813;52.654;6.766;2023-04-01T11:23:17;4.91;;;4.41;;
64452;SDS011;50813;52.654;6.766;2023-04-01T11:25:36;238.8;;;15.1;;
64452;SDS011;50813;52.654;6.766;2023-04-01T11:27:50;238.8;;;15.1;;
64452;SDS011;50813;52.654;6.766;2023-04-01T11:30:16;4.8;;;4.41;;
64452;SDS011;50813;52.654;6.766;2023-04-01T11:32:06;69.2;;;7.7;;
64452;SDS011;50813;52.654;6.766;2023-04-01T11:33:56;38.81;;;7.4;;
64452;SDS011;50813;52.654;6.766;2023-04-01T11:35:59;280.3;;;19.7;;
64452;SDS011;50813;52.654;6.766;2023-04-01T11:38:04;4.7;;;4.41;;
64452;SDS011;50813;52.654;6.766;2023-04-01T11:39:57;165.8;;;13.1;;
64452;SDS011;50813;52.654;6.766;2023-04-01T11:41:45;130.4;;;12.0;;
64452;SDS011;50813;52.654;6.766;2023-04-01T11:43:29;7.7;;;6.3;;
64452;SDS011;50813;52.654;6.766;2023-04-01T11:45:16;23.8;;;6.5;;
64452;SDS011;50813;52.654;6.766;2023-04-01T11:47:26;77.3;;;8.5;;
64452;SDS011;50813;52.654;6.766;2023-04-01T11:49:25;48.5;;;6.4;;
64452;SDS011;50813;52.654;6.766;2023-04-01T11:51:34;6.3;;;5.7;;
64452;SDS011;50813;52.654;6.766;2023-04-01T11:54:03;124.7;;;10.4;;
64452;SDS011;50813;52.654;6.766;2023-04-01T11:55:53;144.0;;;13.1;;
64452;SDS011;50813;52.654;6.766;2023-04-01T11:57:50;36.0;;;6.0;;
64452;SDS011;50813;52.654;6.766;2023-04-01T11:59:47;82.6;;;11.5;;
64452;SDS011;50813;52.654;6.766;2023-04-01T12:03:43;13.2;;;6.3;;
64452;SDS011;50813;52.654;6.766;2023-04-01T12:06:01;5.5;;;5.11;;
64452;SDS011;50813;52.654;6.766;2023-04-01T12:09:40;33.5;;;5.3;;
64452;SDS011;50813;52.654;6.766;2023-04-01T12:11:26;4.41;;;4.1;;
64452;SDS011;50813;52.654;6.766;2023-04-01T12:13:14;5.11;;;4.61;;
64452;SDS011;50813;52.654;6.766;2023-04-01T12:15:03;100.1;;;9.5;;
64452;SDS011;50813;52.654;6.766;2023-04-01T12:16:56;4.8;;;4.41;;
64452;SDS011;50813;52.654;6.766;2023-04-01T12:18:40;53.7;;;6.1;;
64452;SDS011;50813;52.654;6.766;2023-04-01T12:22:19;4.5;;;4.1;;
64452;SDS011;50813;52.654;6.766;2023-04-01T12:24:25;4.5;;;4.1;;
64452;SDS011;50813;52.654;6.766;2023-04-01T12:26:43;4.1;;;3.8;;
64452;SDS011;50813;52.654;6.766;2023-04-01T12:29:07;4.41;;;4.1;;
64452;SDS011;50813;52.654;6.766;2023-04-01T12:31:01;71.2;;;6.6;;
64452;SDS011;50813;52.654;6.766;2023-04-01T12:34:51;152.81;;;14.2;;
64452;SDS011;50813;52.654;6.766;2023-04-01T12:36:41;31.9;;;4.2;;
64452;SDS011;50813;52.654;6.766;2023-04-01T12:38:30;56.2;;;7.4;;
64452;SDS011;50813;52.654;6.766;2023-04-01T12:45:13;332.4;;;24.6;;
64452;SDS011;50813;52.654;6.766;2023-04-01T12:47:33;405.7;;;28.0;;
64452;SDS011;50813;52.654;6.766;2023-04-01T12:51:11;732.6;;;42.3;;
64452;SDS011;50813;52.654;6.766;2023-04-01T12:54:08;57.9;;;8.71;;
64452;SDS011;50813;52.654;6.766;2023-04-01T12:58:00;613.4;;;31.6;;
64452;SDS011;50813;52.654;6.766;2023-04-01T13:01:36;821.2;;;47.3;;
64452;SDS011;50813;52.654;6.766;2023-04-01T13:03:46;694.5;;;35.1;;
64452;SDS011;50813;52.654;6.766;2023-04-01T13:05:50;85.5;;;8.2;;
64452;SDS011;50813;52.654;6.766;2023-04-01T13:09:20;700.6;;;35.4;;
64452;SDS011;50813;52.654;6.766;2023-04-01T13:13:00;290.0;;;21.7;;
64452;SDS011;50813;52.654;6.766;2023-04-01T13:15:10;417.9;;;21.3;;
64452;SDS011;50813;52.654;6.766;2023-04-01T13:17:13;692.6;;;39.4;;
64452;SDS011;50813;52.654;6.766;2023-04-01T13:18:59;498.0;;;27.8;;
64452;SDS011;50813;52.654;6.766;2023-04-01T13:20:43;364.1;;;23.4;;
64452;SDS011;50813;52.654;6.766;2023-04-01T13:22:26;267.7;;;17.41;;
64452;SDS011;50813;52.654;6.766;2023-04-01T13:24:24;879.1;;;41.1;;
64452;SDS011;50813;52.654;6.766;2023-04-01T13:26:15;89.4;;;9.21;;
64452;SDS011;50813;52.654;6.766;2023-04-01T13:29:45;350.1;;;22.2;;
64452;SDS011;50813;52.654;6.766;2023-04-01T13:31:53;446.9;;;26.2;;
64452;SDS011;50813;52.654;6.766;2023-04-01T13:33:42;871.4;;;43.3;;
64452;SDS011;50813;52.654;6.766;2023-04-01T13:35:28;676.0;;;35.5;;
64452;SDS011;50813;52.654;6.766;2023-04-01T13:37:20;294.61;;;19.5;;
64452;SDS011;50813;52.654;6.766;2023-04-01T13:39:19;83.5;;;8.71;;
64452;SDS011;50813;52.654;6.766;2023-04-01T13:41:10;972.8;;;53.8;;
64452;SDS011;50813;52.654;6.766;2023-04-01T13:42:58;401.8;;;28.6;;
64452;SDS011;50813;52.654;6.766;2023-04-01T13:46:56;242.1;;;16.2;;
64452;SDS011;50813;52.654;6.766;2023-04-01T13:48:50;593.5;;;32.4;;
64452;SDS011;50813;52.654;6.766;2023-04-01T13:52:13;560.9;;;31.8;;
64452;SDS011;50813;52.654;6.766;2023-04-01T13:54:13;862.5;;;39.71;;
64452;SDS011;50813;52.654;6.766;2023-04-01T13:56:33;257.9;;;17.3;;
64452;SDS011;50813;52.654;6.766;2023-04-01T13:58:22;153.5;;;17.0;;
64452;SDS011;50813;52.654;6.766;2023-04-01T14:01:05;93.7;;;9.9;;
64452;SDS011;50813;52.654;6.766;2023-04-01T14:02:51;364.7;;;22.2;;
64452;SDS011;50813;52.654;6.766;2023-04-01T14:04:49;341.2;;;26.2;;